Flight Track Log - Related Links

Times and Time Zones

All times are in EDT time to prevent confusion due to time zone crossing. See the ASQ6115 flight status page for this flight to view local times or setup timezone preferences in your user account.

Time Position Orientation Groundspeed Altitude Reporting Facility
EDT Latitude Longitude Course Direction KTS MPH feet Rate Location/Type
Thu 11:10:44 AM 36.0833 -86.7333 230° Southwest 184 212 2,900  Level Nashville TRACON
Thu 11:11:44 AM 36.0833 -86.8000 270° West 259 298 5,100 2,209 Climbing Nashville TRACON
Thu 11:13:27 AM 36.0789 -86.9644 268° West 294 338 8,900 2,098 Climbing Memphis Center
Thu 11:14:00 AM 35.8180 -87.1642 255° West  Level Estimated
Thu 11:14:27 AM 36.0856 -87.0669 275° West 294 338 10,800  Level Memphis Center
Thu 11:15:00 AM 35.8394 -87.2844 282° West  Level FlightAware Approximate
Thu 11:15:27 AM 36.0975 -87.1975 276° West 325 374 11,600  Level Memphis Center
Thu 11:16:27 AM 36.0797 -87.3239 260° West 370 426 13,200 1,500 Climbing Memphis Center
Thu 11:17:27 AM 36.0472 -87.4483 252° West 377 434 14,600 1,450 Climbing Memphis Center
Thu 11:18:27 AM 36.0106 -87.5781 251° West 390 449 16,100 1,250 Climbing Memphis Center
Thu 11:19:27 AM 35.9781 -87.7047 252° West 454 522 17,100 900 Climbing Memphis Center
Thu 11:20:27 AM 35.9514 -87.8314 255° West 426 490 17,900 850 Climbing Memphis Center
Thu 11:21:27 AM 35.9250 -87.9681 257° West 405 466 18,800 950 Climbing Memphis Center
Thu 11:22:27 AM 35.8686 -88.0847 239° Southwest 408 470 19,800 850 Climbing Memphis Center
Thu 11:23:27 AM 35.7867 -88.1589 216° Southwest 408 470 20,500 850 Climbing Memphis Center
Thu 11:24:27 AM 35.7136 -88.2706 231° Southwest 410 472 21,500 900 Climbing Memphis Center
Thu 11:25:27 AM 35.6508 -88.3897 237° Southwest 421 484 22,300 750 Climbing Memphis Center
Thu 11:26:27 AM 35.5881 -88.5086 237° Southwest 426 490 23,000 700 Climbing Memphis Center
Thu 11:27:27 AM 35.5208 -88.6300 236° Southwest 426 490 23,700 850 Climbing Memphis Center
Thu 11:28:27 AM 35.4581 -88.7539 238° Southwest 426 490 24,700 950 Climbing Memphis Center
Thu 11:29:27 AM 35.3969 -88.8719 238° Southwest 420 483 25,600 950 Climbing Memphis Center
Thu 11:30:27 AM 35.3336 -88.9903 237° Southwest 420 483 26,600 950 Climbing Memphis Center
Thu 11:31:27 AM 35.2619 -89.1236 237° Southwest 420 483 27,500 950 Climbing Memphis Center
Thu 11:32:27 AM 35.1983 -89.2389 236° Southwest 420 483 28,500 950 Climbing Memphis Center
Thu 11:33:27 AM 35.1347 -89.3592 237° Southwest 420 483 29,400 900 Climbing Memphis Center
Thu 11:34:27 AM 35.0689 -89.4767 236° Southwest 425 489 30,300 950 Climbing Memphis Center
Thu 11:35:27 AM 35.0069 -89.5939 237° Southwest 420 483 31,300 900 Climbing Memphis Center
Thu 11:36:27 AM 34.9575 -89.6881 237° Southwest 414 476 32,100 800 Climbing Memphis Center
Thu 11:37:27 AM 34.8728 -89.8231 233° Southwest 433 498 32,900 800 Climbing Memphis Center
Thu 11:38:27 AM 34.8022 -89.9675 239° Southwest 454 522 33,700 800 Climbing Memphis Center
Thu 11:39:27 AM 34.7358 -90.0867 236° Southwest 453 521 34,500 750 Climbing Memphis Center
Thu 11:40:27 AM 34.6692 -90.2081 236° Southwest 439 505 35,200 550 Climbing Memphis Center
Thu 11:41:27 AM 34.6006 -90.3294 236° Southwest 439 505 35,600 400 Climbing Memphis Center
Thu 11:42:27 AM 34.5294 -90.4528 235° Southwest 450 518 36,000 200 Climbing Memphis Center
Thu 11:43:27 AM 34.4606 -90.5739 235° Southwest 445 512 36,000  Level Memphis Center
Thu 11:44:27 AM 34.3936 -90.6969 237° Southwest 445 512 36,000  Level Memphis Center
Thu 11:45:27 AM 34.3242 -90.8175 235° Southwest 445 512 36,000  Level Memphis Center
Thu 11:46:27 AM 34.2550 -90.9375 235° Southwest 445 512 36,000  Level Memphis Center
Thu 11:47:27 AM 34.1917 -91.0503 236° Southwest 445 512 36,000  Level Memphis Center
Thu 11:48:27 AM 34.1222 -91.1700 235° Southwest 445 512 36,000  Level Memphis Center
Thu 11:49:27 AM 34.0567 -91.2925 237° Southwest 445 512 36,000  Level Memphis Center
Thu 11:50:27 AM 33.9847 -91.4169 235° Southwest 451 519 36,000  Level Memphis Center
Thu 11:51:27 AM 33.9147 -91.5336 234° Southwest 446 513 36,000  Level Memphis Center
Thu 11:53:00 AM 33.8125 -91.7167 236° Southwest 415 478 36,000  Level Fort Worth Center
Thu 11:54:00 AM 33.7428 -91.8386 236° Southwest 434 499 36,000  Level Fort Worth Center
Thu 11:55:00 AM 33.6728 -91.9578 235° Southwest 445 512 36,000  Level Fort Worth Center
Thu 11:56:00 AM 33.6008 -92.0794 235° Southwest 450 518 36,000  Level Fort Worth Center
Thu 11:57:00 AM 33.5286 -92.1983 234° Southwest 450 518 36,000  Level Fort Worth Center
Thu 11:58:00 AM 33.4586 -92.3219 236° Southwest 445 512 36,000  Level Fort Worth Center
Thu 11:59:00 AM 33.3664 -92.4169 221° Southwest 445 512 36,000  Level Fort Worth Center
Thu 12:00:00 PM 33.2403 -92.4464 191° South 427 491 36,000  Level Fort Worth Center
Thu 12:01:00 PM 33.1058 -92.4711 189° South 455 524 36,000  Level Fort Worth Center
Thu 12:02:00 PM 32.9772 -92.4931 188° South 468 539 36,000  Level Fort Worth Center
Thu 12:03:00 PM 32.8342 -92.5208 189° South 480 552 36,000  Level Fort Worth Center
Thu 12:05:04 PM 32.5814 -92.5692 189° South 476 548 36,000  Level Houston Center
Thu 12:06:06 PM 32.4242 -92.5964 188° South 477 549 36,000  Level Houston Center
Thu 12:07:08 PM 32.2939 -92.6203 189° South 477 549 36,000  Level Houston Center
Thu 12:08:10 PM 32.1639 -92.6442 189° South 476 548 36,000  Level Houston Center
Thu 12:09:13 PM 32.0314 -92.6672 188° South 480 552 36,000  Level Houston Center
Thu 12:10:15 PM 31.9153 -92.7308 205° Southwest 473 544 36,000  Level Houston Center
Thu 12:11:17 PM 31.8172 -92.8256 219° Southwest 462 532 36,000  Level Houston Center
Thu 12:12:19 PM 31.6989 -92.9394 219° Southwest 459 528 36,000  Level Houston Center
Thu 12:13:21 PM 31.6022 -93.0364 221° Southwest 459 528 36,000  Level Houston Center
Thu 12:14:23 PM 31.5019 -93.1311 219° Southwest 464 534 36,000  Level Houston Center
Thu 12:15:25 PM 31.4028 -93.2256 219° Southwest 462 532 36,000 -339 Level Houston Center
Thu 12:16:27 PM 31.3003 -93.3253 220° Southwest 464 534 35,300 -1,258 Descending Houston Center
Thu 12:17:29 PM 31.2047 -93.4156 219° Southwest 460 529 33,400 -2,032 Descending Houston Center
Thu 12:18:31 PM 31.0858 -93.5283 219° Southwest 460 529 31,100 -2,160 Descending Houston Center
Thu 12:19:34 PM 30.9872 -93.6233 220° Southwest 462 532 28,900 -2,880 Descending Houston Center
Thu 12:20:36 PM 30.8886 -93.7158 219° Southwest 460 529 25,100 -3,387 Descending Houston Center
Thu 12:21:38 PM 30.7933 -93.8069 219° Southwest 449 517 21,900 -1,984 Descending Houston Center
Thu 12:22:40 PM 30.7019 -93.8919 219° Southwest 430 495 21,000 -435 Descending Houston Center
Thu 12:23:42 PM 30.5925 -93.9958 219° Southwest 427 491 21,000 -97 Level Houston Center
Thu 12:24:44 PM 30.4994 -94.0828 219° Southwest 432 497 20,800 -1,385 Descending Houston Center
Thu 12:25:39 PM 30.4117 -94.1642 219° Southwest 421 484 18,300 -2,516 Descending Houston Center
Thu 12:25:46 PM 30.4103 -94.1675 244° Southwest 420 483 18,200 -3,491 Descending Houston Center
Thu 12:26:34 PM 30.3272 -94.2433 218° Southwest 402 463 15,100 -3,194 Descending Houston Center
Thu 12:26:48 PM 30.3236 -94.2472 223° Southwest 402 463 14,900 -1,791 Descending Houston Center
Thu 12:27:41 PM 30.2653 -94.3631 240° Southwest 392 451 13,100 -1,935 Descending Houston Center
Thu 12:27:50 PM 30.2614 -94.3786 254° West 395 455 12,900 -964 Descending Houston Center
Thu 12:28:37 PM 30.2319 -94.4714 250° West 393 452 12,200 -857 Descending Houston Center
Thu 12:28:53 PM 30.2250 -94.4969 253° West 393 452 12,000 -689 Descending Houston Center
Thu 12:29:38 PM 30.2061 -94.5956 258° West 397 457 11,500 -581 Descending Houston Center
Thu 12:29:55 PM 30.2050 -94.6131 266° West 392 451 11,400 -492 Descending Houston Center
Thu 12:30:39 PM 30.1978 -94.7250 266° West 389 448 11,000 -484 Descending Houston Center
Thu 12:30:57 PM 30.1972 -94.7392 267° West 395 455 10,900 -885 Descending Houston Center
Thu 12:31:40 PM 30.1778 -94.8461 258° West 388 447 10,100 -871 Descending Houston Center
Thu 12:31:59 PM 30.1731 -94.8844 262° West 389 448 10,000 -109 Descending Houston Center
Thu 12:32:35 PM 30.1611 -94.9569 259° West 377 434 10,000  Level Houston Center
Thu 12:33:01 PM 30.1547 -94.9992 260° West 377 434 10,000 -764 Level Houston Center
Thu 12:33:30 PM 30.1444 -95.0483 256° West 295 339 9,300 -1,452 Descending Houston Center
Thu 12:34:03 PM 30.1394 -95.0925 263° West 311 358 8,500 -1,726 Descending Houston Center
Thu 12:34:43 PM 30.1256 -95.1619 257° West 295 339 7,200 -1,645 Descending Houston Center
Thu 12:35:05 PM 30.1233 -95.1842 263° West 296 341 6,800 -1,065 Descending Houston Center
Thu 12:35:45 PM 30.1108 -95.2531 258° West 283 326 6,100 -774 Descending Houston Center
Thu 12:36:07 PM 30.1092 -95.2719 264° West 284 327 6,000 -109 Descending Houston Center
Thu 12:36:40 PM 30.1072 -95.3261 268° West 247 284 6,000  Level Houston Center
Thu 12:37:09 PM 30.1075 -95.3506 271° West 253 291 6,000 -1,279 Level Houston Center
Thu 12:37:41 PM 30.1081 -95.4056 271° West 239 275 4,700 -2,000 Descending Houston Center
Thu 12:38:12 PM 30.1081 -95.4417 270° West 240 276 3,900 -1,522 Descending Houston Center
Thu 12:38:48 PM 30.1075 -95.4925 269° West 236 272 3,000 -871 Descending Houston Center
Thu 12:39:14 PM 30.1078 -95.5172 271° West 238 274 3,000  Level Houston Center
Thu 12:39:55 PM 30.1067 -95.5747 269° West 234 269 3,000  Level Houston Center
Thu 12:40:16 PM 30.1069 -95.5917 271° West 236 272 3,000  Level Houston Center
Thu 12:40:51 PM 30.1025 -95.6453 265° West 238 274 3,000  Level Houston Center
Thu 12:41:18 PM 30.1019 -95.6678 268° West 236 272 3,000  Level Houston Center
Thu 12:41:58 PM 30.0742 -95.7067 230° Southwest 188 216 3,000  Level Houston Center
Thu 12:42:20 PM 30.0658 -95.7103 201° Southwest 221 254 3,000  Level Houston Center
Thu 12:42:53 PM 30.0261 -95.7072 176° South 181 208 3,000  Level Houston Center
Thu 12:43:22 PM 30.0144 -95.6864 123° Southeast 202 232 3,000  Level Houston Center
Thu 12:43:54 PM 30.0067 -95.6542 106° East 181 208 3,000  Level Houston Center
Thu 12:44:24 PM 30.0061 -95.6283 91° East 189 217 3,000  Level Houston Center
Thu 12:44:50 PM 30.0058 -95.5989 91° East 192 221 3,000  Level Houston Center
Thu 12:45:26 PM 30.0072 -95.5681 87° East 188 216 3,000  Level Houston Center
Thu 12:45:51 PM 30.0067 -95.5383 91° East 182 209 3,000 -484 Level Houston Center
Thu 12:46:28 PM 30.0072 -95.5086 89° East 186 214 2,500 -968 Descending Houston Center
Thu 12:46:53 PM 30.0053 -95.4758 94° East 193 222 2,000 -871 Descending Houston Center
Thu 12:47:30 PM 30.0081 -95.4478 83° East 187 215 1,600 -787 Descending Houston Center
Thu 12:47:54 PM 30.0069 -95.4250 93° East 138 159 1,200 -774 Descending Houston Center
Thu 12:48:32 PM 30.0081 -95.4042 86° East 159 183 800 -716 Descending Houston Center
Thu 12:49:01 PM 30.0067 -95.3767 93° East 144 166 400 -393 Descending Houston Center
Thu 12:49:33 PM 30.0072 -95.3544 88° East 148 170 400  Level Houston Center

Login

Don't have an account? Register now (free) for customized features, flight alerts, and more!